sensor_id;sensor_type;location;lat;lon;timestamp;P1;durP1;ratioP1;P2;durP2;ratioP2
15261;SDS011;7733;51.554;13.590;2022-08-03T00:01:39;2.20;;;2.00;;
15261;SDS011;7733;51.554;13.590;2022-08-03T00:04:07;2.40;;;2.20;;
15261;SDS011;7733;51.554;13.590;2022-08-03T00:06:35;2.30;;;2.20;;
15261;SDS011;7733;51.554;13.590;2022-08-03T00:09:01;2.17;;;2.07;;
15261;SDS011;7733;51.554;13.590;2022-08-03T00:11:29;4.73;;;2.30;;
15261;SDS011;7733;51.554;13.590;2022-08-03T00:13:54;2.53;;;2.33;;
15261;SDS011;7733;51.554;13.590;2022-08-03T00:16:20;2.10;;;2.00;;
15261;SDS011;7733;51.554;13.590;2022-08-03T00:18:46;3.50;;;2.37;;
15261;SDS011;7733;51.554;13.590;2022-08-03T00:21:11;2.30;;;2.20;;
15261;SDS011;7733;51.554;13.590;2022-08-03T00:23:37;3.67;;;2.10;;
15261;SDS011;7733;51.554;13.590;2022-08-03T00:26:03;2.63;;;2.43;;
15261;SDS011;7733;51.554;13.590;2022-08-03T00:28:28;3.00;;;2.27;;
15261;SDS011;7733;51.554;13.590;2022-08-03T00:30:54;2.40;;;2.30;;
15261;SDS011;7733;51.554;13.590;2022-08-03T00:33:20;2.70;;;2.40;;
15261;SDS011;7733;51.554;13.590;2022-08-03T00:35:46;2.43;;;2.23;;
15261;SDS011;7733;51.554;13.590;2022-08-03T00:38:12;2.13;;;2.03;;
15261;SDS011;7733;51.554;13.590;2022-08-03T00:40:38;2.63;;;2.40;;
15261;SDS011;7733;51.554;13.590;2022-08-03T00:43:04;2.33;;;2.23;;
15261;SDS011;7733;51.554;13.590;2022-08-03T00:45:35;2.87;;;2.30;;
15261;SDS011;7733;51.554;13.590;2022-08-03T00:48:04;2.60;;;2.50;;
15261;SDS011;7733;51.554;13.590;2022-08-03T00:50:36;2.30;;;2.20;;
15261;SDS011;7733;51.554;13.590;2022-08-03T00:53:06;2.43;;;2.23;;
15261;SDS011;7733;51.554;13.590;2022-08-03T00:55:36;2.50;;;2.40;;
15261;SDS011;7733;51.554;13.590;2022-08-03T00:58:02;2.50;;;2.40;;
15261;SDS011;7733;51.554;13.590;2022-08-03T01:00:34;2.77;;;2.40;;
15261;SDS011;7733;51.554;13.590;2022-08-03T01:03:02;2.40;;;2.20;;
15261;SDS011;7733;51.554;13.590;2022-08-03T01:05:30;2.67;;;2.43;;
15261;SDS011;7733;51.554;13.590;2022-08-03T01:08:31;2.50;;;2.30;;
15261;SDS011;7733;51.554;13.590;2022-08-03T01:11:18;2.50;;;2.40;;
15261;SDS011;7733;51.554;13.590;2022-08-03T01:13:59;2.63;;;2.03;;
15261;SDS011;7733;51.554;13.590;2022-08-03T01:19:52;2.60;;;2.50;;
15261;SDS011;7733;51.554;13.590;2022-08-03T01:31:27;2.77;;;2.50;;
15261;SDS011;7733;51.554;13.590;2022-08-03T01:34:00;2.73;;;2.53;;
15261;SDS011;7733;51.554;13.590;2022-08-03T01:36:34;2.40;;;2.30;;
15261;SDS011;7733;51.554;13.590;2022-08-03T01:39:04;2.33;;;2.20;;
15261;SDS011;7733;51.554;13.590;2022-08-03T01:41:37;2.93;;;2.73;;
15261;SDS011;7733;51.554;13.590;2022-08-03T01:44:12;3.00;;;2.63;;
15261;SDS011;7733;51.554;13.590;2022-08-03T01:46:39;2.70;;;2.50;;
15261;SDS011;7733;51.554;13.590;2022-08-03T01:49:07;2.80;;;2.70;;
15261;SDS011;7733;51.554;13.590;2022-08-03T01:51:37;2.40;;;2.30;;
15261;SDS011;7733;51.554;13.590;2022-08-03T01:54:06;2.50;;;2.40;;
15261;SDS011;7733;51.554;13.590;2022-08-03T01:56:35;2.60;;;2.40;;
15261;SDS011;7733;51.554;13.590;2022-08-03T01:59:04;2.47;;;2.37;;
15261;SDS011;7733;51.554;13.590;2022-08-03T02:01:34;2.47;;;2.37;;
15261;SDS011;7733;51.554;13.590;2022-08-03T02:04:01;2.63;;;2.40;;
15261;SDS011;7733;51.554;13.590;2022-08-03T02:06:30;2.97;;;2.70;;
15261;SDS011;7733;51.554;13.590;2022-08-03T02:08:59;2.73;;;2.63;;
15261;SDS011;7733;51.554;13.590;2022-08-03T02:11:26;2.47;;;2.27;;
15261;SDS011;7733;51.554;13.590;2022-08-03T02:13:57;2.50;;;2.40;;
15261;SDS011;7733;51.554;13.590;2022-08-03T02:16:28;2.67;;;2.40;;
15261;SDS011;7733;51.554;13.590;2022-08-03T02:18:57;2.50;;;2.40;;
15261;SDS011;7733;51.554;13.590;2022-08-03T02:21:27;3.20;;;3.00;;
15261;SDS011;7733;51.554;13.590;2022-08-03T02:24:00;2.93;;;2.80;;
15261;SDS011;7733;51.554;13.590;2022-08-03T02:26:27;2.60;;;2.50;;
15261;SDS011;7733;51.554;13.590;2022-08-03T02:28:55;2.80;;;2.63;;
15261;SDS011;7733;51.554;13.590;2022-08-03T02:31:29;3.20;;;2.90;;
15261;SDS011;7733;51.554;13.590;2022-08-03T02:33:59;2.67;;;2.57;;
15261;SDS011;7733;51.554;13.590;2022-08-03T02:36:34;3.40;;;2.50;;
15261;SDS011;7733;51.554;13.590;2022-08-03T02:39:03;2.33;;;2.23;;
15261;SDS011;7733;51.554;13.590;2022-08-03T02:41:32;2.53;;;2.43;;
15261;SDS011;7733;51.554;13.590;2022-08-03T02:44:26;2.73;;;2.37;;
15261;SDS011;7733;51.554;13.590;2022-08-03T02:46:56;2.70;;;2.60;;
15261;SDS011;7733;51.554;13.590;2022-08-03T02:49:28;2.80;;;2.70;;
15261;SDS011;7733;51.554;13.590;2022-08-03T02:51:57;2.73;;;2.63;;
15261;SDS011;7733;51.554;13.590;2022-08-03T02:54:24;3.20;;;2.90;;
15261;SDS011;7733;51.554;13.590;2022-08-03T02:56:53;2.90;;;2.70;;
15261;SDS011;7733;51.554;13.590;2022-08-03T02:59:21;2.87;;;2.67;;
15261;SDS011;7733;51.554;13.590;2022-08-03T03:01:48;3.20;;;3.00;;
15261;SDS011;7733;51.554;13.590;2022-08-03T03:04:15;2.87;;;2.67;;
15261;SDS011;7733;51.554;13.590;2022-08-03T03:06:43;3.93;;;2.80;;
15261;SDS011;7733;51.554;13.590;2022-08-03T03:09:09;2.83;;;2.73;;
15261;SDS011;7733;51.554;13.590;2022-08-03T03:11:37;3.33;;;2.93;;
15261;SDS011;7733;51.554;13.590;2022-08-03T03:14:04;3.30;;;3.10;;
15261;SDS011;7733;51.554;13.590;2022-08-03T03:16:35;3.10;;;2.90;;
15261;SDS011;7733;51.554;13.590;2022-08-03T03:19:02;2.63;;;2.53;;
15261;SDS011;7733;51.554;13.590;2022-08-03T03:21:28;2.90;;;2.80;;
15261;SDS011;7733;51.554;13.590;2022-08-03T03:23:55;2.90;;;2.80;;
15261;SDS011;7733;51.554;13.590;2022-08-03T03:26:23;3.17;;;2.57;;
15261;SDS011;7733;51.554;13.590;2022-08-03T03:28:48;3.70;;;2.87;;
15261;SDS011;7733;51.554;13.590;2022-08-03T03:31:14;3.00;;;2.83;;
15261;SDS011;7733;51.554;13.590;2022-08-03T03:33:40;4.23;;;2.93;;
15261;SDS011;7733;51.554;13.590;2022-08-03T03:36:06;3.23;;;3.07;;
15261;SDS011;7733;51.554;13.590;2022-08-03T03:38:32;2.90;;;2.80;;
15261;SDS011;7733;51.554;13.590;2022-08-03T03:40:58;3.20;;;3.00;;
15261;SDS011;7733;51.554;13.590;2022-08-03T03:43:25;2.70;;;2.50;;
15261;SDS011;7733;51.554;13.590;2022-08-03T03:45:50;3.27;;;2.97;;
15261;SDS011;7733;51.554;13.590;2022-08-03T03:48:18;3.27;;;3.07;;
15261;SDS011;7733;51.554;13.590;2022-08-03T03:50:44;2.97;;;2.77;;
15261;SDS011;7733;51.554;13.590;2022-08-03T03:53:11;3.43;;;3.13;;
15261;SDS011;7733;51.554;13.590;2022-08-03T03:55:38;4.63;;;2.90;;
15261;SDS011;7733;51.554;13.590;2022-08-03T03:58:05;2.93;;;2.73;;
15261;SDS011;7733;51.554;13.590;2022-08-03T04:00:31;2.67;;;2.57;;
15261;SDS011;7733;51.554;13.590;2022-08-03T04:02:57;3.10;;;2.80;;
15261;SDS011;7733;51.554;13.590;2022-08-03T04:05:23;2.90;;;2.70;;
15261;SDS011;7733;51.554;13.590;2022-08-03T04:08:16;3.73;;;2.60;;
15261;SDS011;7733;51.554;13.590;2022-08-03T04:16:31;4.53;;;3.10;;
15261;SDS011;7733;51.554;13.590;2022-08-03T04:19:02;3.60;;;3.40;;
15261;SDS011;7733;51.554;13.590;2022-08-03T04:21:33;3.17;;;2.97;;
15261;SDS011;7733;51.554;13.590;2022-08-03T04:24:04;3.50;;;3.30;;
15261;SDS011;7733;51.554;13.590;2022-08-03T04:26:35;3.10;;;3.00;;
15261;SDS011;7733;51.554;13.590;2022-08-03T04:29:07;3.17;;;3.03;;
15261;SDS011;7733;51.554;13.590;2022-08-03T04:31:35;3.57;;;3.27;;
15261;SDS011;7733;51.554;13.590;2022-08-03T04:34:04;3.37;;;3.20;;
15261;SDS011;7733;51.554;13.590;2022-08-03T04:36:32;3.67;;;3.40;;
15261;SDS011;7733;51.554;13.590;2022-08-03T04:39:41;3.60;;;3.40;;
15261;SDS011;7733;51.554;13.590;2022-08-03T04:42:03;3.33;;;3.20;;
15261;SDS011;7733;51.554;13.590;2022-08-03T04:44:34;3.43;;;3.07;;
15261;SDS011;7733;51.554;13.590;2022-08-03T04:47:04;3.60;;;3.30;;
15261;SDS011;7733;51.554;13.590;2022-08-03T04:49:30;3.23;;;3.03;;
15261;SDS011;7733;51.554;13.590;2022-08-03T04:51:57;4.00;;;2.90;;
15261;SDS011;7733;51.554;13.590;2022-08-03T04:54:22;3.07;;;2.90;;
15261;SDS011;7733;51.554;13.590;2022-08-03T04:56:48;3.87;;;2.90;;
15261;SDS011;7733;51.554;13.590;2022-08-03T04:59:14;4.83;;;2.87;;
15261;SDS011;7733;51.554;13.590;2022-08-03T05:01:41;3.57;;;3.30;;
15261;SDS011;7733;51.554;13.590;2022-08-03T05:04:08;4.70;;;3.40;;
15261;SDS011;7733;51.554;13.590;2022-08-03T05:06:34;3.67;;;3.40;;
15261;SDS011;7733;51.554;13.590;2022-08-03T05:08:59;3.37;;;3.17;;
15261;SDS011;7733;51.554;13.590;2022-08-03T05:11:25;4.97;;;3.40;;
15261;SDS011;7733;51.554;13.590;2022-08-03T05:13:51;3.40;;;3.20;;
15261;SDS011;7733;51.554;13.590;2022-08-03T05:16:16;3.50;;;3.30;;
15261;SDS011;7733;51.554;13.590;2022-08-03T05:18:42;3.87;;;3.57;;
15261;SDS011;7733;51.554;13.590;2022-08-03T05:21:09;3.63;;;3.33;;
15261;SDS011;7733;51.554;13.590;2022-08-03T05:23:36;4.33;;;3.23;;
15261;SDS011;7733;51.554;13.590;2022-08-03T05:26:02;5.67;;;3.53;;
15261;SDS011;7733;51.554;13.590;2022-08-03T05:28:28;5.33;;;3.50;;
15261;SDS011;7733;51.554;13.590;2022-08-03T05:30:53;4.27;;;3.20;;
15261;SDS011;7733;51.554;13.590;2022-08-03T05:33:19;3.73;;;3.47;;
15261;SDS011;7733;51.554;13.590;2022-08-03T05:35:45;4.47;;;3.73;;
15261;SDS011;7733;51.554;13.590;2022-08-03T05:38:10;4.33;;;3.90;;
15261;SDS011;7733;51.554;13.590;2022-08-03T05:40:36;4.87;;;3.80;;
15261;SDS011;7733;51.554;13.590;2022-08-03T05:43:02;6.00;;;3.60;;
15261;SDS011;7733;51.554;13.590;2022-08-03T05:45:27;7.17;;;3.80;;
15261;SDS011;7733;51.554;13.590;2022-08-03T05:47:53;6.90;;;3.43;;
15261;SDS011;7733;51.554;13.590;2022-08-03T05:50:19;3.73;;;3.33;;
15261;SDS011;7733;51.554;13.590;2022-08-03T05:52:45;3.77;;;3.50;;
15261;SDS011;7733;51.554;13.590;2022-08-03T05:55:11;4.93;;;3.50;;
15261;SDS011;7733;51.554;13.590;2022-08-03T05:57:38;3.97;;;3.20;;
15261;SDS011;7733;51.554;13.590;2022-08-03T06:00:08;4.47;;;3.50;;
15261;SDS011;7733;51.554;13.590;2022-08-03T06:02:36;4.10;;;3.90;;
15261;SDS011;7733;51.554;13.590;2022-08-03T06:05:01;7.07;;;3.47;;
15261;SDS011;7733;51.554;13.590;2022-08-03T06:07:27;6.13;;;3.83;;
15261;SDS011;7733;51.554;13.590;2022-08-03T06:09:53;3.87;;;3.57;;
15261;SDS011;7733;51.554;13.590;2022-08-03T06:12:19;4.43;;;4.13;;
15261;SDS011;7733;51.554;13.590;2022-08-03T06:14:44;4.00;;;3.50;;
15261;SDS011;7733;51.554;13.590;2022-08-03T06:17:10;4.53;;;4.23;;
15261;SDS011;7733;51.554;13.590;2022-08-03T06:19:36;4.23;;;3.13;;
15261;SDS011;7733;51.554;13.590;2022-08-03T06:22:02;3.13;;;2.93;;
15261;SDS011;7733;51.554;13.590;2022-08-03T06:24:28;3.67;;;3.30;;
15261;SDS011;7733;51.554;13.590;2022-08-03T06:26:54;3.57;;;3.10;;
15261;SDS011;7733;51.554;13.590;2022-08-03T06:29:20;3.40;;;3.20;;
15261;SDS011;7733;51.554;13.590;2022-08-03T06:31:45;3.80;;;3.40;;
15261;SDS011;7733;51.554;13.590;2022-08-03T06:34:11;3.63;;;3.33;;
15261;SDS011;7733;51.554;13.590;2022-08-03T06:36:36;3.33;;;3.10;;
15261;SDS011;7733;51.554;13.590;2022-08-03T06:39:02;6.10;;;3.30;;
15261;SDS011;7733;51.554;13.590;2022-08-03T06:41:29;3.30;;;3.10;;
15261;SDS011;7733;51.554;13.590;2022-08-03T06:43:54;3.40;;;3.17;;
15261;SDS011;7733;51.554;13.590;2022-08-03T06:46:20;2.57;;;2.47;;
15261;SDS011;7733;51.554;13.590;2022-08-03T06:48:46;4.03;;;2.87;;
15261;SDS011;7733;51.554;13.590;2022-08-03T06:51:12;2.67;;;2.57;;
15261;SDS011;7733;51.554;13.590;2022-08-03T06:53:37;3.20;;;2.90;;
15261;SDS011;7733;51.554;13.590;2022-08-03T06:56:03;3.20;;;3.00;;
15261;SDS011;7733;51.554;13.590;2022-08-03T06:58:30;3.07;;;2.87;;
15261;SDS011;7733;51.554;13.590;2022-08-03T07:00:56;3.30;;;3.10;;
15261;SDS011;7733;51.554;13.590;2022-08-03T07:03:21;3.60;;;2.70;;
15261;SDS011;7733;51.554;13.590;2022-08-03T07:05:47;2.80;;;2.53;;
15261;SDS011;7733;51.554;13.590;2022-08-03T07:08:13;3.83;;;2.87;;
15261;SDS011;7733;51.554;13.590;2022-08-03T07:10:39;2.63;;;2.50;;
15261;SDS011;7733;51.554;13.590;2022-08-03T07:13:05;3.23;;;2.77;;
15261;SDS011;7733;51.554;13.590;2022-08-03T07:15:31;3.03;;;2.83;;
15261;SDS011;7733;51.554;13.590;2022-08-03T07:17:58;2.93;;;2.83;;
15261;SDS011;7733;51.554;13.590;2022-08-03T07:20:23;2.70;;;2.60;;
15261;SDS011;7733;51.554;13.590;2022-08-03T07:22:49;3.17;;;2.83;;
15261;SDS011;7733;51.554;13.590;2022-08-03T07:25:15;3.60;;;2.83;;
15261;SDS011;7733;51.554;13.590;2022-08-03T07:27:44;2.50;;;2.40;;
15261;SDS011;7733;51.554;13.590;2022-08-03T07:30:12;2.30;;;2.20;;
15261;SDS011;7733;51.554;13.590;2022-08-03T07:32:39;2.77;;;2.60;;
15261;SDS011;7733;51.554;13.590;2022-08-03T07:35:06;2.97;;;2.53;;
15261;SDS011;7733;51.554;13.590;2022-08-03T07:37:33;2.50;;;2.40;;
15261;SDS011;7733;51.554;13.590;2022-08-03T07:40:00;2.70;;;2.50;;
15261;SDS011;7733;51.554;13.590;2022-08-03T07:42:28;2.77;;;2.67;;
15261;SDS011;7733;51.554;13.590;2022-08-03T07:44:55;2.93;;;2.30;;
15261;SDS011;7733;51.554;13.590;2022-08-03T07:47:22;2.70;;;2.60;;
15261;SDS011;7733;51.554;13.590;2022-08-03T07:49:51;3.63;;;2.40;;
15261;SDS011;7733;51.554;13.590;2022-08-03T07:52:17;2.53;;;2.30;;
15261;SDS011;7733;51.554;13.590;2022-08-03T07:55:02;6.50;;;2.43;;
15261;SDS011;7733;51.554;13.590;2022-08-03T07:57:30;2.53;;;2.37;;
15261;SDS011;7733;51.554;13.590;2022-08-03T07:59:56;2.43;;;2.30;;
15261;SDS011;7733;51.554;13.590;2022-08-03T08:02:21;2.43;;;2.20;;
15261;SDS011;7733;51.554;13.590;2022-08-03T08:04:47;2.97;;;2.00;;
15261;SDS011;7733;51.554;13.590;2022-08-03T08:07:12;4.30;;;2.20;;
15261;SDS011;7733;51.554;13.590;2022-08-03T08:09:38;2.50;;;2.20;;
15261;SDS011;7733;51.554;13.590;2022-08-03T08:12:04;2.03;;;1.93;;
15261;SDS011;7733;51.554;13.590;2022-08-03T08:14:31;2.00;;;1.90;;
15261;SDS011;7733;51.554;13.590;2022-08-03T08:16:58;2.20;;;1.90;;
15261;SDS011;7733;51.554;13.590;2022-08-03T08:19:24;1.97;;;1.87;;
15261;SDS011;7733;51.554;13.590;2022-08-03T08:21:49;2.37;;;1.73;;
15261;SDS011;7733;51.554;13.590;2022-08-03T08:24:15;1.83;;;1.73;;
15261;SDS011;7733;51.554;13.590;2022-08-03T08:26:40;2.40;;;1.80;;
15261;SDS011;7733;51.554;13.590;2022-08-03T08:29:06;1.90;;;1.80;;
15261;SDS011;7733;51.554;13.590;2022-08-03T08:31:32;2.13;;;1.63;;
15261;SDS011;7733;51.554;13.590;2022-08-03T08:33:58;1.40;;;1.40;;
15261;SDS011;7733;51.554;13.590;2022-08-03T08:36:23;2.10;;;1.43;;
15261;SDS011;7733;51.554;13.590;2022-08-03T08:38:49;1.67;;;1.40;;
15261;SDS011;7733;51.554;13.590;2022-08-03T08:41:15;1.87;;;1.60;;
15261;SDS011;7733;51.554;13.590;2022-08-03T08:43:41;1.83;;;1.50;;
15261;SDS011;7733;51.554;13.590;2022-08-03T08:46:07;1.50;;;1.40;;
15261;SDS011;7733;51.554;13.590;2022-08-03T08:48:39;1.70;;;1.60;;
15261;SDS011;7733;51.554;13.590;2022-08-03T08:51:07;1.70;;;1.60;;
15261;SDS011;7733;51.554;13.590;2022-08-03T08:53:36;1.80;;;1.60;;
15261;SDS011;7733;51.554;13.590;2022-08-03T08:56:04;1.63;;;1.53;;
15261;SDS011;7733;51.554;13.590;2022-08-03T08:58:40;2.07;;;1.87;;
15261;SDS011;7733;51.554;13.590;2022-08-03T09:01:13;3.07;;;1.70;;
15261;SDS011;7733;51.554;13.590;2022-08-03T09:03:38;3.07;;;1.63;;
15261;SDS011;7733;51.554;13.590;2022-08-03T09:06:04;2.73;;;1.40;;
15261;SDS011;7733;51.554;13.590;2022-08-03T09:08:31;2.23;;;1.27;;
15261;SDS011;7733;51.554;13.590;2022-08-03T09:10:57;1.27;;;1.27;;
15261;SDS011;7733;51.554;13.590;2022-08-03T09:13:23;2.50;;;1.70;;
15261;SDS011;7733;51.554;13.590;2022-08-03T09:16:07;4.43;;;1.30;;
15261;SDS011;7733;51.554;13.590;2022-08-03T09:18:36;1.83;;;1.20;;
15261;SDS011;7733;51.554;13.590;2022-08-03T09:21:15;1.83;;;1.17;;
15261;SDS011;7733;51.554;13.590;2022-08-03T09:23:50;1.87;;;1.37;;
15261;SDS011;7733;51.554;13.590;2022-08-03T09:26:27;2.07;;;1.33;;
15261;SDS011;7733;51.554;13.590;2022-08-03T09:28:56;1.67;;;1.37;;
15261;SDS011;7733;51.554;13.590;2022-08-03T09:31:43;3.70;;;1.67;;
15261;SDS011;7733;51.554;13.590;2022-08-03T09:34:11;3.83;;;1.57;;
15261;SDS011;7733;51.554;13.590;2022-08-03T09:36:46;2.10;;;1.30;;
15261;SDS011;7733;51.554;13.590;2022-08-03T09:39:15;1.97;;;1.17;;
15261;SDS011;7733;51.554;13.590;2022-08-03T09:41:48;1.30;;;1.00;;
15261;SDS011;7733;51.554;13.590;2022-08-03T09:44:34;1.70;;;1.37;;
15261;SDS011;7733;51.554;13.590;2022-08-03T09:47:06;1.30;;;1.20;;
15261;SDS011;7733;51.554;13.590;2022-08-03T09:49:39;1.40;;;1.30;;
15261;SDS011;7733;51.554;13.590;2022-08-03T09:52:17;2.67;;;1.70;;
15261;SDS011;7733;51.554;13.590;2022-08-03T09:54:49;1.67;;;1.10;;
15261;SDS011;7733;51.554;13.590;2022-08-03T09:57:23;2.80;;;1.50;;
15261;SDS011;7733;51.554;13.590;2022-08-03T09:59:51;1.73;;;1.27;;
15261;SDS011;7733;51.554;13.590;2022-08-03T10:02:29;2.77;;;1.10;;
15261;SDS011;7733;51.554;13.590;2022-08-03T10:04:54;2.03;;;1.50;;
15261;SDS011;7733;51.554;13.590;2022-08-03T10:07:20;1.50;;;1.40;;
15261;SDS011;7733;51.554;13.590;2022-08-03T10:09:58;1.80;;;1.43;;
15261;SDS011;7733;51.554;13.590;2022-08-03T10:12:26;1.80;;;1.10;;
15261;SDS011;7733;51.554;13.590;2022-08-03T10:14:53;1.17;;;1.00;;
15261;SDS011;7733;51.554;13.590;2022-08-03T10:17:20;1.37;;;1.23;;
15261;SDS011;7733;51.554;13.590;2022-08-03T10:19:47;1.23;;;1.13;;
15261;SDS011;7733;51.554;13.590;2022-08-03T10:22:14;2.50;;;1.13;;
15261;SDS011;7733;51.554;13.590;2022-08-03T10:24:51;1.70;;;1.10;;
15261;SDS011;7733;51.554;13.590;2022-08-03T10:27:24;1.20;;;1.10;;
15261;SDS011;7733;51.554;13.590;2022-08-03T10:29:58;1.97;;;1.00;;
15261;SDS011;7733;51.554;13.590;2022-08-03T10:32:33;2.53;;;1.20;;
15261;SDS011;7733;51.554;13.590;2022-08-03T10:35:16;4.53;;;1.33;;
15261;SDS011;7733;51.554;13.590;2022-08-03T10:37:47;1.30;;;1.17;;
15261;SDS011;7733;51.554;13.590;2022-08-03T10:40:25;2.97;;;1.40;;
15261;SDS011;7733;51.554;13.590;2022-08-03T10:42:55;2.43;;;1.13;;
15261;SDS011;7733;51.554;13.590;2022-08-03T10:45:27;1.80;;;1.07;;
15261;SDS011;7733;51.554;13.590;2022-08-03T10:47:58;3.33;;;1.10;;
15261;SDS011;7733;51.554;13.590;2022-08-03T10:50:24;0.90;;;0.90;;
15261;SDS011;7733;51.554;13.590;2022-08-03T10:52:58;3.10;;;1.07;;
15261;SDS011;7733;51.554;13.590;2022-08-03T11:01:18;1.30;;;1.20;;
15261;SDS011;7733;51.554;13.590;2022-08-03T11:04:15;4.07;;;1.40;;
15261;SDS011;7733;51.554;13.590;2022-08-03T11:06:44;1.20;;;1.10;;
15261;SDS011;7733;51.554;13.590;2022-08-03T11:11:43;3.90;;;0.90;;
15261;SDS011;7733;51.554;13.590;2022-08-03T11:14:12;1.00;;;1.00;;
15261;SDS011;7733;51.554;13.590;2022-08-03T11:16:43;0.90;;;0.90;;
15261;SDS011;7733;51.554;13.590;2022-08-03T11:19:44;0.80;;;0.80;;
15261;SDS011;7733;51.554;13.590;2022-08-03T11:22:11;3.93;;;1.93;;
15261;SDS011;7733;51.554;13.590;2022-08-03T11:35:17;3.07;;;1.10;;
15261;SDS011;7733;51.554;13.590;2022-08-03T11:40:35;1.10;;;1.00;;
15261;SDS011;7733;51.554;13.590;2022-08-03T11:46:02;2.07;;;1.20;;
15261;SDS011;7733;51.554;13.590;2022-08-03T11:50:57;1.47;;;1.00;;
15261;SDS011;7733;51.554;13.590;2022-08-03T11:53:25;1.73;;;1.10;;
15261;SDS011;7733;51.554;13.590;2022-08-03T11:55:52;2.87;;;1.17;;
15261;SDS011;7733;51.554;13.590;2022-08-03T11:58:18;1.20;;;1.10;;
15261;SDS011;7733;51.554;13.590;2022-08-03T12:00:49;1.30;;;1.20;;
15261;SDS011;7733;51.554;13.590;2022-08-03T12:03:16;1.23;;;1.13;;
15261;SDS011;7733;51.554;13.590;2022-08-03T12:05:50;2.30;;;1.00;;
15261;SDS011;7733;51.554;13.590;2022-08-03T12:10:57;2.37;;;1.03;;
15261;SDS011;7733;51.554;13.590;2022-08-03T12:13:38;1.40;;;1.30;;
15261;SDS011;7733;51.554;13.590;2022-08-03T12:16:18;0.87;;;0.87;;
15261;SDS011;7733;51.554;13.590;2022-08-03T12:18:56;2.03;;;1.20;;
15261;SDS011;7733;51.554;13.590;2022-08-03T12:21:24;1.90;;;1.20;;
15261;SDS011;7733;51.554;13.590;2022-08-03T12:23:49;2.20;;;1.00;;
15261;SDS011;7733;51.554;13.590;2022-08-03T12:26:21;0.70;;;0.70;;
15261;SDS011;7733;51.554;13.590;2022-08-03T12:28:47;1.07;;;0.90;;
15261;SDS011;7733;51.554;13.590;2022-08-03T12:31:13;1.00;;;0.80;;
15261;SDS011;7733;51.554;13.590;2022-08-03T12:36:28;1.40;;;1.20;;
15261;SDS011;7733;51.554;13.590;2022-08-03T12:38:58;1.60;;;1.10;;
15261;SDS011;7733;51.554;13.590;2022-08-03T12:41:28;2.07;;;1.13;;
15261;SDS011;7733;51.554;13.590;2022-08-03T12:44:02;3.50;;;1.00;;
15261;SDS011;7733;51.554;13.590;2022-08-03T12:46:31;0.90;;;0.90;;
15261;SDS011;7733;51.554;13.590;2022-08-03T12:49:12;2.00;;;0.80;;
15261;SDS011;7733;51.554;13.590;2022-08-03T12:54:06;3.10;;;0.90;;
15261;SDS011;7733;51.554;13.590;2022-08-03T12:56:33;0.80;;;0.80;;
15261;SDS011;7733;51.554;13.590;2022-08-03T12:59:00;1.57;;;0.90;;
15261;SDS011;7733;51.554;13.590;2022-08-03T13:01:49;1.07;;;0.80;;
15261;SDS011;7733;51.554;13.590;2022-08-03T13:04:24;1.20;;;1.10;;
15261;SDS011;7733;51.554;13.590;2022-08-03T13:06:58;2.90;;;0.60;;
15261;SDS011;7733;51.554;13.590;2022-08-03T13:09:30;0.90;;;0.90;;
15261;SDS011;7733;51.554;13.590;2022-08-03T13:12:11;1.47;;;0.90;;
15261;SDS011;7733;51.554;13.590;2022-08-03T13:14:38;1.93;;;1.03;;
15261;SDS011;7733;51.554;13.590;2022-08-03T13:17:05;1.93;;;1.20;;
15261;SDS011;7733;51.554;13.590;2022-08-03T13:19:32;1.00;;;1.00;;
15261;SDS011;7733;51.554;13.590;2022-08-03T13:22:15;1.20;;;1.10;;
15261;SDS011;7733;51.554;13.590;2022-08-03T13:24:43;3.23;;;1.00;;
15261;SDS011;7733;51.554;13.590;2022-08-03T13:27:11;1.77;;;1.10;;
15261;SDS011;7733;51.554;13.590;2022-08-03T13:29:39;1.30;;;1.20;;
15261;SDS011;7733;51.554;13.590;2022-08-03T13:32:06;1.60;;;0.70;;
15261;SDS011;7733;51.554;13.590;2022-08-03T13:34:33;1.20;;;1.07;;
15261;SDS011;7733;51.554;13.590;2022-08-03T13:36:59;1.53;;;0.90;;
15261;SDS011;7733;51.554;13.590;2022-08-03T13:39:25;2.90;;;2.70;;
15261;SDS011;7733;51.554;13.590;2022-08-03T13:41:50;8.93;;;1.60;;
15261;SDS011;7733;51.554;13.590;2022-08-03T13:44:17;2.10;;;1.17;;
15261;SDS011;7733;51.554;13.590;2022-08-03T13:46:43;2.80;;;1.00;;
15261;SDS011;7733;51.554;13.590;2022-08-03T13:49:09;3.20;;;1.00;;
15261;SDS011;7733;51.554;13.590;2022-08-03T13:51:35;1.23;;;0.97;;
15261;SDS011;7733;51.554;13.590;2022-08-03T13:54:02;2.27;;;0.83;;
15261;SDS011;7733;51.554;13.590;2022-08-03T13:56:28;2.27;;;1.17;;
15261;SDS011;7733;51.554;13.590;2022-08-03T13:58:55;0.90;;;0.90;;
15261;SDS011;7733;51.554;13.590;2022-08-03T14:01:21;1.30;;;0.83;;
15261;SDS011;7733;51.554;13.590;2022-08-03T14:03:47;0.80;;;0.80;;
15261;SDS011;7733;51.554;13.590;2022-08-03T14:06:18;4.03;;;1.00;;
15261;SDS011;7733;51.554;13.590;2022-08-03T14:08:47;1.40;;;1.30;;
15261;SDS011;7733;51.554;13.590;2022-08-03T14:11:14;5.37;;;1.20;;
15261;SDS011;7733;51.554;13.590;2022-08-03T14:13:40;0.90;;;0.90;;
15261;SDS011;7733;51.554;13.590;2022-08-03T14:16:06;2.07;;;1.07;;
15261;SDS011;7733;51.554;13.590;2022-08-03T14:18:31;2.90;;;1.10;;
15261;SDS011;7733;51.554;13.590;2022-08-03T14:20:57;5.10;;;1.20;;
15261;SDS011;7733;51.554;13.590;2022-08-03T14:23:24;3.90;;;0.93;;
15261;SDS011;7733;51.554;13.590;2022-08-03T14:25:50;1.53;;;1.00;;
15261;SDS011;7733;51.554;13.590;2022-08-03T14:28:16;2.80;;;1.17;;
15261;SDS011;7733;51.554;13.590;2022-08-03T14:30:43;1.93;;;0.90;;
15261;SDS011;7733;51.554;13.590;2022-08-03T14:33:09;1.93;;;1.10;;
15261;SDS011;7733;51.554;13.590;2022-08-03T14:35:34;2.03;;;1.30;;
15261;SDS011;7733;51.554;13.590;2022-08-03T14:38:00;1.03;;;0.90;;
15261;SDS011;7733;51.554;13.590;2022-08-03T14:40:26;0.90;;;0.90;;
15261;SDS011;7733;51.554;13.590;2022-08-03T14:42:51;0.90;;;0.90;;
15261;SDS011;7733;51.554;13.590;2022-08-03T14:45:17;2.63;;;0.90;;
15261;SDS011;7733;51.554;13.590;2022-08-03T14:47:43;3.23;;;1.10;;
15261;SDS011;7733;51.554;13.590;2022-08-03T14:50:08;0.90;;;0.90;;
15261;SDS011;7733;51.554;13.590;2022-08-03T14:52:34;1.33;;;0.90;;
15261;SDS011;7733;51.554;13.590;2022-08-03T14:55:00;2.07;;;1.00;;
15261;SDS011;7733;51.554;13.590;2022-08-03T14:57:25;2.30;;;0.93;;
15261;SDS011;7733;51.554;13.590;2022-08-03T14:59:51;1.63;;;0.90;;
15261;SDS011;7733;51.554;13.590;2022-08-03T15:02:18;1.90;;;1.30;;
15261;SDS011;7733;51.554;13.590;2022-08-03T15:04:44;0.97;;;0.90;;
15261;SDS011;7733;51.554;13.590;2022-08-03T15:07:10;2.17;;;0.87;;
15261;SDS011;7733;51.554;13.590;2022-08-03T15:09:35;3.83;;;1.20;;
15261;SDS011;7733;51.554;13.590;2022-08-03T15:12:02;2.87;;;1.07;;
15261;SDS011;7733;51.554;13.590;2022-08-03T15:14:29;1.93;;;1.13;;
15261;SDS011;7733;51.554;13.590;2022-08-03T15:16:55;3.13;;;1.13;;
15261;SDS011;7733;51.554;13.590;2022-08-03T15:19:21;3.27;;;1.20;;
15261;SDS011;7733;51.554;13.590;2022-08-03T15:21:46;1.40;;;0.90;;
15261;SDS011;7733;51.554;13.590;2022-08-03T15:24:12;2.10;;;1.57;;
15261;SDS011;7733;51.554;13.590;2022-08-03T15:26:38;2.17;;;1.30;;
15261;SDS011;7733;51.554;13.590;2022-08-03T15:29:04;0.90;;;0.90;;
15261;SDS011;7733;51.554;13.590;2022-08-03T15:31:29;3.43;;;1.33;;
15261;SDS011;7733;51.554;13.590;2022-08-03T15:33:55;2.57;;;1.10;;
15261;SDS011;7733;51.554;13.590;2022-08-03T15:36:20;1.77;;;1.00;;
15261;SDS011;7733;51.554;13.590;2022-08-03T15:38:47;4.83;;;1.00;;
15261;SDS011;7733;51.554;13.590;2022-08-03T15:41:13;2.73;;;1.00;;
15261;SDS011;7733;51.554;13.590;2022-08-03T15:43:39;2.17;;;1.00;;
15261;SDS011;7733;51.554;13.590;2022-08-03T15:46:05;2.63;;;1.10;;
15261;SDS011;7733;51.554;13.590;2022-08-03T15:48:31;2.30;;;1.30;;
15261;SDS011;7733;51.554;13.590;2022-08-03T15:50:57;1.17;;;1.13;;